^^
Datos históricos de la estación: Murcia-Puente Tocinos
Diario Informe para Enero 15, 2019 Unidades:  Ingés    Métrico   Ambas
Diario Semanal Mensual Anual
  Máxima: Mínima: Promedio:
Temperatura: 92.1 °F 72.1 °F 81.3 °F
Punto de rocio: 71.2 °F 61 °F 67.1 °F
Humedad: 88% 36% 65%
Velocidad viento: 12.5mph 0mph 5mph
Racha viento: 21mph - -
Viento- - Este
Presión: 30 in 29.9 in -
Precipitación: 0 in    
 
 
Tabla de datos para Enero 15, 2019
Hora Temperatura Punto de rocio Presión Viento Velocidad viento Racha viento Humedad Intensidad lluvia(por hora) Nubes
00:04 76.8 °F 70.9 °F 30 in NE 7.4 mph 12 mph 81.8% 0 in
00:09 76.8 °F 70.9 °F 30 in NNE 7.1 mph 10 mph 82% 0 in
00:14 76.8 °F 70.9 °F 30 in NE 6.4 mph 10 mph 82% 0 in
00:19 76.6 °F 71.1 °F 30 in NE 6 mph 7.6 mph 82.6% 0 in
00:24 76.6 °F 71.1 °F 30 in NE 4.7 mph 8.1 mph 83% 0 in
00:29 76.6 °F 71.1 °F 30 in NE 4.5 mph 7.4 mph 83% 0 in
00:34 76.6 °F 71.1 °F 30 in NNE 4 mph 7.4 mph 83% 0 in
00:39 76.5 °F 71.1 °F 30 in NNE 4.2 mph 8.1 mph 83.5% 0 in
00:44 76.5 °F 71.2 °F 30 in NE 4.7 mph 8 mph 84% 0 in
00:49 76.3 °F 71.1 °F 30 in NNE 4.6 mph 8.1 mph 84% 0 in
00:54 76.3 °F 71.1 °F 30 in NE 4.3 mph 8 mph 84% 0 in
00:59 76.1 °F 70.9 °F 30 in NE 4.3 mph 7.4 mph 84% 0 in
01:04 75.9 °F 70.7 °F 30 in NNE 4.3 mph 7 mph 84.2% 0 in
01:09 75.9 °F 71.1 °F 30 in NNE 4.4 mph 7 mph 85% 0 in
01:14 75.7 °F 70.9 °F 30 in NNE 4.7 mph 7.4 mph 85% 0 in
01:19 75.7 °F 70.9 °F 30 in NNE 4.7 mph 7 mph 85% 0 in
01:24 75.7 °F 70.9 °F 30 in NE 4.7 mph 7 mph 85% 0 in
01:29 75.7 °F 71.2 °F 30 in NE 4.6 mph 7 mph 85.7% 0 in
01:34 75.7 °F 71.2 °F 30 in NE 4.3 mph 7.6 mph 86% 0 in
01:39 75.7 °F 71.2 °F 30 in NE 4.3 mph 8.1 mph 86% 0 in
01:44 75.7 °F 71.2 °F 30 in NE 4.3 mph 7 mph 86% 0 in
01:49 75.7 °F 71.2 °F 30 in NE 4 mph 6 mph 85.7% 0 in
01:54 75.7 °F 70.9 °F 30 in NE 3.1 mph 5 mph 85% 0 in
01:59 75.7 °F 70.9 °F 30 in NE 3 mph 5.8 mph 85% 0 in
02:04 75.7 °F 70.9 °F 30 in NE 2.9 mph 6 mph 85% 0 in
02:09 75.7 °F 70.9 °F 30 in NNE 2.9 mph 6 mph 85% 0 in
02:14 75.6 °F 70.7 °F 30 in NNE 2.9 mph 5.2 mph 85% 0 in
02:19 75.6 °F 70.9 °F 30 in NE 2.9 mph 5.2 mph 85.6% 0 in
02:24 75.6 °F 71.1 °F 30 in NE 3.1 mph 5 mph 86% 0 in
02:29 75.6 °F 71.1 °F 30 in NE 3.1 mph 5.2 mph 86% 0 in
02:34 75.4 °F 70.9 °F 30 in NE 3.1 mph 5.2 mph 86% 0 in
02:39 75.4 °F 70.9 °F 30 in NE 3.1 mph 5.8 mph 86% 0 in
02:44 75.4 °F 70.9 °F 30 in NE 3.1 mph 6 mph 86% 0 in
02:49 75.4 °F 70.9 °F 30 in NE 3.2 mph 6 mph 86% 0 in
02:54 75.2 °F 70.7 °F 30 in NE 3.6 mph 5 mph 86% 0 in
02:59 75.4 °F 70.9 °F 30 in NE 3.2 mph 5 mph 86% 0 in
03:04 75.4 °F 70.9 °F 30 in NE 2.4 mph 5 mph 86% 0 in
03:09 75.2 °F 70.9 °F 30 in NE 2.6 mph 5 mph 86.1% 0 in
03:14 75.2 °F 71.1 °F 30 in NE 3.1 mph 5 mph 87% 0 in
03:19 75.2 °F 71.1 °F 30 in NE 2.9 mph 5 mph 86.8% 0 in
03:24 75 °F 70.5 °F 30 in NNE 2 mph 4.6 mph 86% 0 in
03:29 75 °F 70.9 °F 30 in NNE 1.9 mph 5 mph 87% 0 in
03:34 75 °F 70.9 °F 30 in NNE 1.8 mph 2.3 mph 87% 0 in
03:39 74.8 °F 70.7 °F 30 in NNE 1.4 mph 2 mph 87% 0 in
03:44 74.8 °F 70.7 °F 30 in Calm   3.5 mph 87% 0 in
03:49 74.7 °F 70.5 °F 30 in NNO 0.4 mph 3.6 mph 87.2% 0 in
03:54 74.7 °F 70.9 °F 30 in NNO 1.4 mph 4 mph 88% 0 in
03:59 74.7 °F 70.9 °F 30 in NNO 1.5 mph 3 mph 88% 0 in
04:04 74.7 °F 70.9 °F 30 in NNE 1.8 mph 3 mph 88% 0 in
04:09 74.7 °F 70.9 °F 30 in NNE 1.3 mph 2 mph 88% 0 in
04:14 74.5 °F 70.5 °F 30 in Calm   2.3 mph 87.3% 0 in
04:19 74.5 °F 70.3 °F 30 in Calm   2.9 mph 87% 0 in
04:24 74.3 °F 70.2 °F 30 in Calm   4.7 mph 87% 0 in
04:29 74.1 °F 70 °F 30 in NE 0.7 mph 5 mph 87% 0 in
04:34 74.1 °F 70 °F 30 in NE 2.9 mph 5 mph 87% 0 in
04:39 74.1 °F 70.2 °F 30 in NE 2.7 mph 5 mph 87.7% 0 in
04:44 73.9 °F 70.2 °F 30 in NE 2.4 mph 3 mph 88% 0 in
04:49 73.9 °F 70.2 °F 30 in North 1.8 mph 3.5 mph 88% 0 in
04:54 73.9 °F 69.8 °F 30 in Calm   3.5 mph 87.2% 0 in
04:59 73.9 °F 69.8 °F 30 in NNE 0.4 mph 3 mph 87% 0 in
05:04 73.8 °F 69.6 °F 30 in NNE 1.4 mph 2.9 mph 87% 0 in
05:09 73.8 °F 70 °F 30 in NNE 1.4 mph 3 mph 88% 0 in
05:14 73.8 °F 69.6 °F 30 in NNE 1.4 mph 3.5 mph 87.3% 0 in
05:19 73.8 °F 69.6 °F 30 in North 1.4 mph 3.5 mph 87% 0 in
05:24 73.8 °F 69.6 °F 30 in North 1.4 mph 3 mph 87% 0 in
05:29 73.8 °F 69.6 °F 30 in North 1.4 mph 3 mph 87% 0 in
05:34 73.8 °F 69.4 °F 30 in North 1.4 mph   86.6% 0 in
05:39 73.6 °F 69.1 °F 30 in North 1 mph   86% 0 in
05:44 73.4 °F 68.9 °F 30 in Calm   3.5 mph 85.6% 0 in
05:49 73.2 °F 68.4 °F 30 in Este 0.4 mph 3.6 mph 84.8% 0 in
05:54 73 °F 68.2 °F 30 in Este 1.8 mph 4 mph 84.9% 0 in
05:59 73 °F 68.4 °F 30 in Este 1.2 mph 2 mph 85% 0 in
06:04 73 °F 68.4 °F 30 in Calm   3 mph 85% 0 in
06:09 73 °F 68 °F 30 in ESE 0.5 mph 4.6 mph 84.3% 0 in
06:14 73 °F 67.6 °F 30 in ESE 2 mph 5 mph 83.1% 0 in
06:19 73 °F 67.5 °F 30 in ESE 1.9 mph 3 mph 83% 0 in
06:24 73 °F 67.6 °F 30 in ESE 1.8 mph 2 mph 83% 0 in
06:29 73 °F 67.6 °F 30 in ESE 1.4 mph   83% 0 in
06:34 73 °F 67.6 °F 30 in Calm   3.6 mph 83% 0 in
06:39 73 °F 67.3 °F 30 in ENE 0.4 mph 4.6 mph 82.4% 0 in
06:44 72.7 °F 67.1 °F 30 in Este 1.8 mph 5 mph 82.4% 0 in
06:49 72.7 °F 67.1 °F 30 in ESE 2 mph 5 mph 83% 0 in
06:54 72.7 °F 67.3 °F 30 in ESE 2.4 mph 3 mph 83.4% 0 in
06:59 72.7 °F 67.6 °F 30 in ESE 1.7 mph 4.6 mph 84% 0 in
07:04 72.9 °F 67.5 °F 30 in Calm   5 mph 83.8% 0 in
07:09 72.9 °F 67.6 °F 30 in Este 0.5 mph 3 mph 83.7% 0 in
07:14 72.9 °F 67.5 °F 30 in Este 1.8 mph 3 mph 83% 0 in
07:19 72.9 °F 67.5 °F 30 in Este 1.4 mph 2.9 mph 83% 0 in
07:24 72.7 °F 67.3 °F 30 in Calm   3 mph 83% 0 in
07:29 72.7 °F 67.5 °F 30 in Este 0.5 mph 3.6 mph 83.8% 0 in
07:34 72.7 °F 67.5 °F 30 in NE 1.8 mph 4 mph 83.6% 0 in
07:39 72.5 °F 67.3 °F 30 in ENE 1.9 mph 4 mph 83.9% 0 in
07:44 72.3 °F 67.3 °F 30 in ENE 2 mph 4.6 mph 84% 0 in
07:49 72.1 °F 66.9 °F 30 in Este 2.1 mph 5 mph 84% 0 in
07:54 72.1 °F 66.9 °F 30 in Este 2.4 mph 4.6 mph 84% 0 in
07:59 72.1 °F 66.9 °F 30 in Este 2.4 mph 5 mph 84% 0 in
08:04 72.1 °F 67.1 °F 30 in Este 2.4 mph 5 mph 84% 0 in
08:09 72.5 °F 67.3 °F 30 in Este 2.2 mph 3 mph 84% 0 in
08:14 72.9 °F 67.6 °F 30 in ESE 1.8 mph 4.6 mph 84% 0 in
08:19 73 °F 67.6 °F 30 in ESE 1.9 mph 5 mph 83.2% 0 in
08:24 73.2 °F 67.6 °F 30 in SE 2 mph 3.6 mph 82.9% 0 in
08:29 73.8 °F 67.8 °F 30 in SE 2 mph 4 mph 82% 0 in
08:34 74.1 °F 68.2 °F 30 in SE 2 mph 4 mph 82% 0 in
08:39 74.7 °F 68.4 °F 30 in SSO 2.1 mph 5.2 mph 81% 0 in
08:44 74.8 °F 68.5 °F 30 in SSO 2.4 mph 5 mph 81% 0 in
08:49 74.8 °F 68.7 °F 30 in SSO 2.3 mph 5 mph 81% 0 in
08:54 75.2 °F 68.7 °F 30 in SSO 2 mph 5 mph 80.4% 0 in
08:59 75.4 °F 68.9 °F 30 in SSO 2.1 mph 5 mph 80% 0 in
09:04 75.7 °F 69.1 °F 30 in Sur 2.4 mph 5 mph 79.9% 0 in
09:09 76.1 °F 69.1 °F 30 in SE 2.3 mph 5 mph 79.1% 0 in
09:14 76.6 °F 69.4 °F 30 in SE 2 mph 5 mph 78.8% 0 in
09:19 77.2 °F 69.6 °F 30 in ESE 1.9 mph 3.5 mph 77.3% 0 in
09:24 77.7 °F 69.6 °F 30 in ESE 1.4 mph 4 mph 76.2% 0 in
09:29 78.3 °F 69.6 °F 30 in ENE 1.6 mph 5 mph 75% 0 in
09:34 78.4 °F 69.8 °F 30 in ENE 2 mph 5.9 mph 74.9% 0 in
09:39 78.4 °F 69.4 °F 30 in ENE 2.2 mph 6 mph 74% 0 in
09:44 78.4 °F 69.8 °F 30 in ENE 2.9 mph 5 mph 74.6% 0 in
09:49 78.8 °F 70.2 °F 30 in ENE 2.7 mph 5.8 mph 74.8% 0 in
09:54 79 °F 70 °F 30 in NNE 2 mph 6.2 mph 74% 0 in
09:59 78.6 °F 70 °F 30 in North 2.3 mph 6 mph 75% 0 in
10:04 78.8 °F 70.5 °F 30 in North 2.9 mph 6 mph 75.6% 0 in
10:09 79 °F 70.5 °F 30 in NNE 2.9 mph 6 mph 75.3% 0 in
10:14 79.2 °F 70.5 °F 30 in NE 2.9 mph 6.2 mph 75% 0 in
10:19 79.2 °F 70.5 °F 30 in ENE 2.9 mph 6 mph 75% 0 in
10:24 79.2 °F 70.5 °F 30 in NNE 3.1 mph 5.9 mph 75% 0 in
10:29 79.2 °F 70.5 °F 30 in NO 2.9 mph 6 mph 75% 0 in
10:34 79.3 °F 70.7 °F 30 in NNO 2.4 mph 6 mph 75% 0 in
10:39 79.3 °F 70.7 °F 30 in NE 2.5 mph 6.2 mph 74.9% 0 in
10:44 79.5 °F 70.7 °F 30 in NE 2.9 mph 6 mph 74.3% 0 in
10:49 79.9 °F 70.5 °F 30 in North 2.9 mph 6 mph 73.3% 0 in
10:54 80.1 °F 70.7 °F 30 in North 3.1 mph 6 mph 73.1% 0 in
10:59 80.4 °F 70.9 °F 30 in North 3 mph 5.9 mph 72.5% 0 in
11:04 80.8 °F 70.2 °F 30 in NO 2.9 mph 6.2 mph 70.3% 0 in
11:09 81 °F 70.3 °F 30 in NO 2.9 mph 6.9 mph 70.1% 0 in
11:14 81 °F 70 °F 30 in ENE 3.1 mph 9.2 mph 69.3% 0 in
11:19 81.3 °F 69.8 °F 30 in North 3.4 mph 9 mph 68.3% 0 in
11:24 81.5 °F 69.8 °F 30 in NNE 4 mph 9 mph 68% 0 in
11:29 81.9 °F 70 °F 30 in NNE 4 mph 8.1 mph 67.3% 0 in
11:34 81.9 °F 69.6 °F 30 in North 4 mph 9.2 mph 66.4% 0 in
11:39 82 °F 69.3 °F 30 in NNE 4.2 mph 9.2 mph 65.2% 0 in
11:44 82.2 °F 69.1 °F 30 in NE 4.7 mph 12.3 mph 64.7% 0 in
11:49 82.6 °F 69.1 °F 30 in NNE 4.8 mph 13 mph 63.8% 0 in
11:54 82.9 °F 68.7 °F 30 in North 5.2 mph 11 mph 62.4% 0 in
11:59 83.1 °F 68.5 °F 30 in NNE 4.9 mph 9.2 mph 61.6% 0 in
12:04 83.7 °F 68.4 °F 30 in NNE 4.3 mph 12.7 mph 60.1% 0 in
12:09 83.8 °F 68.2 °F 30 in ENE 4.3 mph 13 mph 59.1% 0 in
12:14 84.6 °F 67.8 °F 30 in NNE 4.3 mph 8.1 mph 57.6% 0 in
12:19 84.7 °F 67.8 °F 30 in NE 4.5 mph 9.2 mph 56.9% 0 in
12:24 84.9 °F 67.6 °F 30 in NNE 5.2 mph 9 mph 56.1% 0 in
12:29 85.3 °F 67.3 °F 30 in NNE 5.2 mph 11.5 mph 55% 0 in
12:34 85.6 °F 66.9 °F 30 in NE 5.2 mph 12 mph 53.9% 0 in
12:39 86.2 °F 67.3 °F 30 in NE 5 mph 9.2 mph 53.6% 0 in
12:44 86.7 °F 66.9 °F 30 in NE 4.3 mph 9.7 mph 52% 0 in
12:49 86.9 °F 66.4 °F 30 in NE 4.6 mph 10.7 mph 50.6% 0 in
12:54 87.1 °F 66.6 °F 30 in NNE 5.4 mph 11 mph 50.7% 0 in
12:59 87.4 °F 66.9 °F 30 in NNE 5.2 mph 10 mph 50.8% 0 in
13:04 87.6 °F 65.7 °F 30 in NE 4.7 mph 11.8 mph 48.5% 0 in
13:09 87.6 °F 65.8 °F 30 in Este 4.9 mph 12 mph 48.6% 0 in
13:14 88.2 °F 64.9 °F 30 in NE 5.4 mph 13 mph 46.4% 0 in
13:19 88.3 °F 63.5 °F 30 in NNE 5.5 mph 13 mph 43.7% 0 in
13:24 88.9 °F 63.7 °F 30 in NE 5.9 mph 9.2 mph 43.4% 0 in
13:29 89.2 °F 63.9 °F 30 in NE 5.7 mph 9 mph 43.2% 0 in
13:34 90 °F 63.9 °F 30 in NNE 5.2 mph 10.4 mph 42.2% 0 in
13:39 90.1 °F 63.9 °F 30 in ENE 5 mph 10 mph 41.8% 0 in
13:44 90.7 °F 62.1 °F 30 in Este 4.3 mph 9.2 mph 38.7% 0 in
13:49 91 °F 61 °F 30 in Este 4.3 mph 9 mph 36.7% 0 in
13:54 91.4 °F 61.2 °F 30 in Este 4.3 mph 8.7 mph 36.6% 0 in
13:59 91.8 °F 61 °F 30 in Sur 4.3 mph 9.2 mph 36% 0 in
14:04 91.8 °F 61 °F 30 in OSO 4.3 mph 9 mph 36% 0 in
14:09 91.9 °F 62.6 °F 30 in SE 4 mph 17 mph 37.8% 0 in
14:14 91.8 °F 63.5 °F 30 in SSE 3.1 mph 17.3 mph 39.2% 0 in
14:19 91.6 °F 63.5 °F 30 in SSE 4.5 mph 14 mph 39.7% 0 in
14:24 91.6 °F 63.7 °F 30 in SE 8.5 mph 12 mph 40% 0 in
14:29 91.8 °F 63.9 °F 30 in ESE 8.1 mph 13 mph 40% 0 in
14:34 91.8 °F 63.5 °F 30 in SE 6.9 mph 17.3 mph 39.2% 0 in
14:39 91.6 °F 63 °F 30 in SE 7.5 mph 17 mph 38.9% 0 in
14:44 91.6 °F 63 °F 30 in ESE 9.2 mph 17.8 mph 38.9% 0 in
14:49 91.6 °F 62.8 °F 30 in ESE 9.3 mph 18.4 mph 38.7% 0 in
14:54 91.8 °F 62.8 °F 30 in SE 9.7 mph 17 mph 38.5% 0 in
14:59 91.8 °F 62.6 °F 30 in ESE 9.3 mph 17.8 mph 38.1% 0 in
15:04 91.8 °F 62.6 °F 30 in ESE 8.5 mph 19 mph 38.1% 0 in
15:09 91.6 °F 62.1 °F 30 in ESE 9.3 mph 19 mph 37.6% 0 in
15:14 91.6 °F 62.2 °F 30 in ESE 11.2 mph 19 mph 37.9% 0 in
15:19 91.6 °F 62.4 °F 30 in ESE 10.9 mph 18 mph 38% 0 in
15:24 91.9 °F 62.2 °F 30 in ESE 10 mph 16.1 mph 37.3% 0 in
15:29 92.1 °F 62.6 °F 30 in ESE 9.8 mph 17.3 mph 37.6% 0 in
15:34 91.8 °F 62.4 °F 30 in ESE 9.2 mph 17.3 mph 37.9% 0 in
15:39 91.8 °F 62.1 °F 30 in ESE 9.7 mph 17.5 mph 37.4% 0 in
15:44 91.8 °F 62.1 °F 30 in ESE 11.2 mph 17 mph 37.6% 0 in
15:49 91.9 °F 62.6 °F 30 in ESE 10.4 mph 16 mph 38% 0 in
15:54 91.9 °F 62.8 °F 30 in ESE 8.5 mph 17.5 mph 38% 0 in
15:59 91.8 °F 62.4 °F 30 in ESE 9 mph 17 mph 37.9% 0 in
16:04 91.9 °F 63.1 °F 30 in SE 10.2 mph 18.4 mph 38.6% 0 in
16:09 91.8 °F 63.1 °F 30 in SE 10.4 mph 19 mph 38.9% 0 in
16:14 91.8 °F 63.3 °F 30 in SE 11.2 mph 19.6 mph 39.1% 0 in
16:19 91.8 °F 63.3 °F 30 in ESE 10.9 mph 20 mph 39% 0 in
16:24 91.8 °F 63.1 °F 30 in SE 10.2 mph 20 mph 39% 0 in
16:29 91.4 °F 63 °F 30 in ESE 10.4 mph 20.7 mph 39.1% 0 in
16:34 91 °F 63.1 °F 30 in ESE 11.2 mph 21 mph 39.5% 0 in
16:39 91 °F 62.8 °F 30 in ESE 11.2 mph 20 mph 39.3% 0 in
16:44 91.6 °F 62.6 °F 30 in ESE 11.2 mph 20 mph 38.3% 0 in
16:49 91.2 °F 62.1 °F 30 in ESE 11.2 mph 18.4 mph 38.1% 0 in
16:54 91 °F 62.1 °F 30 in SE 11.2 mph 18 mph 38% 0 in
16:59 91.6 °F 62.4 °F 30 in ESE 10.8 mph 16.1 mph 38% 0 in
17:04 91.8 °F 61.9 °F 30 in SE 10 mph 17.3 mph 37.2% 0 in
17:09 91.2 °F 62.1 °F 30 in ESE 10.2 mph 17.8 mph 38% 0 in
17:14 91 °F 62.1 °F 30 in ESE 10.7 mph 18.4 mph 38% 0 in
17:19 91.2 °F 62.1 °F 30 in ESE 10.5 mph 17 mph 37.8% 0 in
17:24 91.2 °F 62.1 °F 29.9 in ESE 10 mph 19.6 mph 38% 0 in
17:29 91 °F 61.7 °F 29.9 in ESE 10.4 mph 20 mph 37.9% 0 in
17:34 90.7 °F 61.9 °F 29.9 in ESE 11.4 mph 19.6 mph 38.5% 0 in
17:39 90.5 °F 62.1 °F 29.9 in ESE 11.7 mph 20 mph 38.7% 0 in
17:44 90.1 °F 62.2 °F 29.9 in ESE 12.5 mph 20 mph 39.4% 0 in
17:49 90.1 °F 62.4 °F 29.9 in ESE 12.1 mph 18.5 mph 40% 0 in
17:54 90.1 °F 62.6 °F 29.9 in SE 11.2 mph 20.8 mph 40% 0 in
17:59 90 °F 62.4 °F 29.9 in ESE 11.2 mph 21 mph 40.2% 0 in
18:04 89.8 °F 62.8 °F 29.9 in ESE 11.4 mph 19.7 mph 40.9% 0 in
18:09 89.8 °F 63 °F 29.9 in ESE 11 mph 20 mph 41% 0 in
18:14 89.8 °F 62.8 °F 29.9 in ESE 10 mph 20.8 mph 41% 0 in
18:19 89.2 °F 62.6 °F 30 in ESE 10.4 mph 21 mph 41.2% 0 in
18:24 89.1 °F 63 °F 30 in ESE 11.4 mph 20 mph 41.8% 0 in
18:29 89.2 °F 63.3 °F 30 in ESE 11.4 mph 18 mph 42.3% 0 in
18:34 89.1 °F 63.7 °F 30 in ESE 11.4 mph 17.5 mph 43% 0 in
18:39 89.1 °F 63.7 °F 30 in ESE 10.6 mph 17 mph 42.9% 0 in
18:44 89.2 °F 63.7 °F 30 in ESE 8.5 mph 14.7 mph 42.9% 0 in
18:49 88.9 °F 63.9 °F 30 in ESE 8.7 mph 17.5 mph 43.5% 0 in
18:54 88.3 °F 63.9 °F 30 in ESE 9.2 mph 17 mph 44.3% 0 in
18:59 88.2 °F 64 °F 30 in ESE 9.4 mph 15 mph 44.9% 0 in
19:04 88.2 °F 64 °F 30 in ESE 9.7 mph 16.8 mph 45% 0 in
19:09 88.2 °F 64.6 °F 30 in ESE 9.4 mph 17.3 mph 45.8% 0 in
19:14 88 °F 64.6 °F 30 in ESE 8.7 mph 17 mph 46% 0 in
19:19 87.8 °F 64.6 °F 30 in ESE 8.8 mph 15.2 mph 46.4% 0 in
19:24 87.6 °F 64.8 °F 30 in ESE 9.2 mph 15 mph 46.7% 0 in
19:29 87.6 °F 64.8 °F 30 in ESE 8.4 mph 12.7 mph 46.9% 0 in
19:34 87.4 °F 64.8 °F 30 in ESE 6.4 mph 13.8 mph 46.8% 0 in
19:39 87.3 °F 64.6 °F 30 in ESE 6.7 mph 14 mph 47% 0 in
19:44 87.3 °F 64.9 °F 30 in ESE 7.6 mph 15 mph 47.5% 0 in
19:49 87.3 °F 65.1 °F 30 in ESE 7.4 mph 15 mph 48% 0 in
19:54 87.1 °F 64.9 °F 30 in ESE 6.9 mph 13.8 mph 48% 0 in
19:59 86.7 °F 64.8 °F 30 in ESE 7.1 mph 14 mph 48% 0 in
20:04 86.5 °F 64.6 °F 30 in ESE 7.6 mph 14 mph 48% 0 in
20:09 86.5 °F 64.8 °F 30 in ESE 7.3 mph 14 mph 48.4% 0 in
20:14 86.4 °F 64.8 °F 30 in ESE 6.4 mph 15 mph 48.5% 0 in
20:19 86 °F 64.6 °F 30 in ESE 7.1 mph 15 mph 49% 0 in
20:24 85.6 °F 64.8 °F 30 in ESE 9.2 mph 15 mph 49.9% 0 in
20:29 85.6 °F 64.6 °F 30 in ESE 8.6 mph 12.7 mph 49.5% 0 in
20:34 85.5 °F 64.6 °F 30 in ESE 6.9 mph 13.8 mph 49.9% 0 in
20:39 85.3 °F 64.9 °F 30 in ESE 7.1 mph 14 mph 50.7% 0 in
20:44 84.9 °F 64.8 °F 30 in Este 7.6 mph 12 mph 51% 0 in
20:49 84.7 °F 64.8 °F 30 in ESE 7.1 mph 11 mph 51.4% 0 in
20:54 84.6 °F 64.8 °F 30 in Este 5.9 mph 12.7 mph 51.9% 0 in
20:59 84.4 °F 64.8 °F 30 in Este 5.9 mph 13 mph 52% 0 in
21:04 84 °F 64.6 °F 30 in ENE 5.9 mph 9.2 mph 52.1% 0 in
21:09 83.8 °F 64.9 °F 30 in NE 5.6 mph 9 mph 53% 0 in
21:14 83.7 °F 65.3 °F 30 in NE 4.7 mph 8 mph 53.9% 0 in
21:19 83.3 °F 65.3 °F 30 in NE 4.5 mph 7 mph 54.6% 0 in
21:24 82.9 °F 65.1 °F 30 in NE 4 mph 8.5 mph 55.1% 0 in
21:29 82.6 °F 65.3 °F 30 in NE 4.2 mph 10.4 mph 56% 0 in
21:34 82.2 °F 65.5 °F 30 in NE 4.7 mph 10 mph 56.9% 0 in
21:39 81.9 °F 65.3 °F 30 in NE 5.2 mph 10.4 mph 57.3% 0 in
21:44 81.7 °F 65.7 °F 30 in NE 6.2 mph 12.7 mph 58.2% 0 in
21:49 81.3 °F 65.7 °F 30 in NE 6.3 mph 13 mph 59% 0 in
21:54 81.1 °F 65.8 °F 30 in NE 6.4 mph 10 mph 59.8% 0 in
21:59 81 °F 65.8 °F 30 in ENE 6.3 mph 11.5 mph 60% 0 in
22:04 80.8 °F 66 °F 30 in ENE 5.9 mph 12 mph 60.9% 0 in
22:09 80.6 °F 65.8 °F 30 in ENE 5.4 mph 9 mph 61.1% 0 in
22:14 80.4 °F 66.2 °F 30 in NE 4 mph 9.2 mph 62% 0 in
22:19 80.2 °F 66 °F 30 in ENE 4.2 mph 9 mph 62% 0 in
22:24 80.1 °F 66.4 °F 30 in ENE 4.7 mph 8.1 mph 63% 0 in
22:29 79.9 °F 66.2 °F 30 in ENE 4.6 mph 9.2 mph 63% 0 in
22:34 79.9 °F 66.2 °F 30 in NE 4.3 mph 11.5 mph 63.3% 0 in
22:39 79.3 °F 66.4 °F 30 in NE 4.8 mph 12 mph 64.3% 0 in
22:44 79.3 °F 66.6 °F 30 in NE 6.2 mph 10 mph 65% 0 in
22:49 79.2 °F 66.4 °F 30 in NE 6 mph 9.7 mph 65% 0 in
22:54 79.2 °F 66.4 °F 30 in NE 5.4 mph 10 mph 65% 0 in
22:59 79.2 °F 66.6 °F 30 in NE 5.5 mph 9.2 mph 65.6% 0 in
23:04 79 °F 66.6 °F 30 in NE 5.9 mph 9 mph 66% 0 in
23:09 78.8 °F 66.9 °F 30 in NE 5.6 mph 9.2 mph 66.7% 0 in
23:14 78.8 °F 66.9 °F 30 in NE 4.7 mph 10.4 mph 67.2% 0 in
23:19 78.6 °F 67.3 °F 30 in NE 5 mph 10 mph 68% 0 in
23:24 78.4 °F 67.5 °F 30 in NE 5.9 mph 9.7 mph 69% 0 in
23:29 78.4 °F 67.5 °F 30 in NE 5.8 mph 10 mph 69.3% 0 in
23:34 78.3 °F 67.8 °F 30 in NE 5.4 mph 9.7 mph 70.4% 0 in
23:39 78.1 °F 67.8 °F 30 in NE 5.4 mph 10 mph 71% 0 in
23:44 77.9 °F 68 °F 30 in NE 5.4 mph 7 mph 71.6% 0 in
23:49 77.7 °F 68 °F 30 in NE 5.1 mph 8.1 mph 72% 0 in
23:54 77.7 °F 68.2 °F 30 in NE 4.3 mph 8 mph 72.5% 0 in
23:59 77.5 °F 68.2 °F 30 in NE 4.1 mph 6.2 mph 73% 0 in
Murcia-Puente Tocinos, Espa?a
Compliments of Weather Underground - 3.25 mb

La estación de MeteoMurcia.com, publica sus datos en los siguientes proyectos:

Weather Underground PWS IMURCIAP2 Meteoclimatic www.awekas.at

Web Analytics

Clicky